Time;durP1;ratioP1;P1;durP2;ratioP2;P2;SDS_P1;SDS_P2;PMS_P1;PMS_P2;Temp;Humidity;BMP_temperature;BMP_pressure;BME280_temperature;BME280_humidity;BME280_pressure;Samples;Min_cycle;Max_cycle;Signal;HPM_P1;HPM_P2
2021/07/03 00:00:35;;;;;;;2.53;2.35;;;;;;;14.16;72.20;96632.47;5075008;28;20025;-76
2021/07/03 00:03:01;;;;;;;2.50;2.40;;;;;;;14.12;72.20;96634.75;5074806;28;20040;-76
2021/07/03 00:05:28;;;;;;;2.20;2.10;;;;;;;14.12;72.33;96634.75;5073455;28;20032;-76
2021/07/03 00:07:54;;;;;;;2.30;2.20;;;;;;;14.11;72.45;96643.72;5055959;28;20060;-76
2021/07/03 00:10:21;;;;;;;2.42;2.13;;;;;;;14.09;72.63;96644.97;5075154;28;20032;-76
2021/07/03 00:12:48;;;;;;;2.15;2.03;;;;;;;14.07;72.67;96647.03;5074729;28;20461;-77
2021/07/03 00:15:23;;;;;;;2.45;2.30;;;;;;;14.06;72.88;96654.16;5074431;28;20041;-76
2021/07/03 00:17:54;;;;;;;4.07;2.17;;;;;;;14.04;72.72;96647.53;5072807;28;20507;-77
2021/07/03 00:20:21;;;;;;;2.55;2.35;;;;;;;14.02;72.81;96640.63;5075321;28;20028;-77
2021/07/03 00:22:48;;;;;;;2.20;2.08;;;;;;;14.00;72.96;96645.34;5074393;28;20361;-76
2021/07/03 00:25:15;;;;;;;2.28;2.17;;;;;;;13.99;73.05;96641.13;5072920;28;20049;-76
2021/07/03 00:27:41;;;;;;;2.78;2.55;;;;;;;13.96;73.17;96638.97;5073178;28;20043;-76
2021/07/03 00:30:10;;;;;;;2.20;2.10;;;;;;;13.93;73.20;96638.63;5074101;28;20028;-76
2021/07/03 00:32:37;;;;;;;2.25;2.15;;;;;;;13.90;73.24;96642.53;5074291;28;20036;-76
2021/07/03 00:35:05;;;;;;;2.50;2.40;;;;;;;13.87;73.30;96635.06;5074231;28;20508;-76
2021/07/03 00:37:31;;;;;;;2.28;2.08;;;;;;;13.85;73.49;96636.34;5074284;28;20027;-76
2021/07/03 00:39:57;;;;;;;2.25;2.15;;;;;;;13.80;73.52;96637.06;5072435;28;20485;-76
2021/07/03 00:42:23;;;;;;;2.35;2.25;;;;;;;13.78;73.49;96645.19;5072530;28;20052;-76
2021/07/03 00:44:49;;;;;;;2.25;2.15;;;;;;;13.72;73.65;96648.75;5073787;28;20048;-77
2021/07/03 00:47:15;;;;;;;2.00;1.90;;;;;;;13.71;73.68;96641.06;5072498;28;20040;-76
2021/07/03 00:49:41;;;;;;;2.20;2.10;;;;;;;13.69;73.71;96646.59;5073238;28;20051;-76
2021/07/03 00:52:09;;;;;;;2.47;2.38;;;;;;;13.68;73.83;96646.81;5073029;28;20054;-76
2021/07/03 00:54:39;;;;;;;2.25;2.15;;;;;;;13.64;73.94;96643.84;5073436;28;20461;-76
2021/07/03 00:57:07;;;;;;;2.55;2.35;;;;;;;13.61;73.88;96633.78;5073952;28;20041;-76
2021/07/03 00:59:43;;;;;;;2.17;2.08;;;;;;;13.58;74.38;96635.00;5073530;28;20040;-76
2021/07/03 01:02:12;;;;;;;2.70;2.50;;;;;;;13.56;74.07;96642.34;5073723;28;20036;-76
2021/07/03 01:04:39;;;;;;;2.65;2.55;;;;;;;13.54;74.12;96638.34;5072493;28;20063;-76
2021/07/03 01:07:06;;;;;;;2.55;2.30;;;;;;;13.51;74.26;96634.34;5073506;28;20041;-76
2021/07/03 01:09:34;;;;;;;2.33;2.08;;;;;;;13.50;74.17;96648.56;5073449;28;20416;-76
2021/07/03 01:12:01;;;;;;;2.45;2.35;;;;;;;13.47;74.22;96640.31;5073496;28;20036;-76
2021/07/03 01:14:27;;;;;;;2.55;2.45;;;;;;;13.45;74.41;96640.53;5073477;28;20036;-76
2021/07/03 01:16:53;;;;;;;2.42;2.28;;;;;;;13.44;74.48;96644.22;5071968;28;20503;-76
2021/07/03 01:19:20;;;;;;;2.75;2.50;;;;;;;13.42;74.38;96641.03;5072750;28;20044;-76
2021/07/03 01:21:56;;;;;;;2.55;2.45;;;;;;;13.39;74.61;96641.47;5073428;28;20037;-76
2021/07/03 01:24:23;;;;;;;2.30;2.20;;;;;;;13.37;74.51;96635.63;5073361;28;20036;-76
2021/07/03 01:26:52;;;;;;;2.60;2.50;;;;;;;13.33;74.47;96637.13;5073263;28;20048;-76
2021/07/03 01:29:20;;;;;;;2.42;2.33;;;;;;;13.27;74.71;96628.28;5072985;28;20036;-79
2021/07/03 01:31:48;;;;;;;2.63;2.53;;;;;;;13.26;74.82;96631.16;5073043;28;20048;-76
2021/07/03 01:34:16;;;;;;;2.67;2.58;;;;;;;13.25;74.78;96630.34;5072700;28;20053;-76
2021/07/03 01:36:42;;;;;;;2.20;2.10;;;;;;;13.24;74.71;96630.56;5073364;28;20029;-76
2021/07/03 01:39:09;;;;;;;2.55;2.40;;;;;;;13.25;74.76;96630.34;5072025;28;20029;-76
2021/07/03 01:41:35;;;;;;;2.92;2.80;;;;;;;13.24;74.78;96636.63;5072609;28;20040;-77
2021/07/03 01:44:02;;;;;;;2.90;2.80;;;;;;;13.24;74.80;96646.38;5071334;28;20481;-76
2021/07/03 01:46:30;;;;;;;2.70;2.50;;;;;;;13.19;74.73;96650.50;5072567;28;20481;-76
2021/07/03 01:49:07;;;;;;;2.85;2.65;;;;;;;13.17;74.87;96649.13;5073378;28;20036;-76
2021/07/03 01:51:33;;;;;;;2.72;2.53;;;;;;;13.14;74.88;96650.38;5073077;28;20029;-76
2021/07/03 01:54:00;;;;;;;2.45;2.35;;;;;;;13.14;74.91;96645.09;5072802;28;20040;-76
2021/07/03 01:56:26;;;;;;;2.80;2.63;;;;;;;13.13;74.99;96640.09;5072666;28;20385;-76
2021/07/03 01:58:52;;;;;;;2.67;2.58;;;;;;;13.11;75.06;96642.94;5072301;28;20515;-76
2021/07/03 02:01:19;;;;;;;2.75;2.55;;;;;;;13.09;74.91;96646.84;5072925;28;20036;-76
2021/07/03 02:03:45;;;;;;;2.70;2.58;;;;;;;13.06;74.90;96639.38;5073053;28;20040;-76
2021/07/03 02:06:11;;;;;;;2.70;2.60;;;;;;;13.02;75.06;96644.31;5072259;28;20103;-76
2021/07/03 02:08:49;;;;;;;3.03;2.85;;;;;;;12.98;75.08;96641.34;5072306;28;20048;-76
2021/07/03 02:11:15;;;;;;;2.80;2.70;;;;;;;12.95;75.11;96640.97;5073152;28;20040;-76
2021/07/03 02:13:41;;;;;;;3.08;2.90;;;;;;;12.94;75.06;96634.13;5073052;28;20033;-76
2021/07/03 02:16:08;;;;;;;3.35;3.05;;;;;;;12.89;75.18;96632.19;5071528;28;20044;-77
2021/07/03 02:18:34;;;;;;;3.25;2.97;;;;;;;12.86;75.16;96627.34;5071770;28;20377;-76
2021/07/03 02:21:00;;;;;;;2.95;2.85;;;;;;;12.82;75.29;96620.94;5071531;28;20049;-76
2021/07/03 02:23:27;;;;;;;2.85;2.65;;;;;;;12.79;75.24;96627.47;5073071;28;20028;-77
2021/07/03 02:25:53;;;;;;;3.00;2.80;;;;;;;12.73;75.39;96614.41;5072820;28;20032;-78
2021/07/03 02:28:19;;;;;;;3.08;2.97;;;;;;;12.69;75.33;96615.91;5074198;28;20033;-78
2021/07/03 02:30:45;;;;;;;3.08;2.88;;;;;;;12.66;75.52;96611.91;5076662;28;20128;-78
2021/07/03 02:33:12;;;;;;;2.97;2.78;;;;;;;12.67;75.63;96610.84;5076615;28;20032;-78
2021/07/03 02:35:38;;;;;;;3.45;2.90;;;;;;;12.65;75.65;96614.75;5075165;28;20049;-78
2021/07/03 02:38:05;;;;;;;2.90;2.70;;;;;;;12.60;75.64;96607.53;5074932;28;20052;-78
2021/07/03 02:40:31;;;;;;;3.17;2.97;;;;;;;12.58;75.88;96613.03;5075242;28;20036;-77
2021/07/03 02:42:57;;;;;;;2.92;2.72;;;;;;;12.57;75.87;96614.03;5075031;28;20040;-77
2021/07/03 02:45:29;;;;;;;3.13;2.92;;;;;;;12.57;75.83;96615.88;5074851;28;20044;-78
2021/07/03 02:47:55;;;;;;;2.92;2.72;;;;;;;12.54;75.97;96618.97;5075266;28;20434;-76
2021/07/03 02:50:21;;;;;;;3.03;2.80;;;;;;;12.52;75.98;96615.75;5076245;28;20029;-76
2021/07/03 02:52:48;;;;;;;3.25;3.05;;;;;;;12.51;76.00;96625.47;5076043;28;20057;-77
2021/07/03 02:55:15;;;;;;;2.70;2.60;;;;;;;12.50;76.05;96637.03;5076216;28;20408;-76
2021/07/03 02:57:41;;;;;;;3.00;2.78;;;;;;;12.49;76.15;96629.34;5076310;28;20481;-78
2021/07/03 03:00:11;;;;;;;3.00;2.80;;;;;;;12.45;76.36;96631.66;5074815;28;20396;-77
2021/07/03 03:02:37;;;;;;;3.05;2.85;;;;;;;12.43;76.19;96628.44;5075526;28;20039;-77
2021/07/03 03:05:09;;;;;;;3.10;2.90;;;;;;;12.41;76.47;96613.88;5075915;28;20037;-79
2021/07/03 03:07:36;;;;;;;3.25;3.05;;;;;;;12.42;76.49;96611.03;5075938;28;20028;-78
2021/07/03 03:10:05;;;;;;;3.05;2.85;;;;;;;12.41;76.50;96619.16;5075741;28;20032;-78
2021/07/03 03:12:31;;;;;;;3.28;3.08;;;;;;;12.39;76.46;96614.13;5076158;28;20035;-78
2021/07/03 03:14:57;;;;;;;3.97;3.42;;;;;;;12.37;76.49;96616.97;5075645;28;20049;-79
2021/07/03 03:17:23;;;;;;;3.00;2.90;;;;;;;12.37;76.50;96610.94;5074552;28;20389;-78
2021/07/03 03:19:50;;;;;;;3.03;2.83;;;;;;;12.34;76.58;96614.78;5075545;28;20045;-77
2021/07/03 03:22:16;;;;;;;3.13;2.88;;;;;;;12.33;76.63;96618.44;5075158;28;20045;-77
2021/07/03 03:24:42;;;;;;;2.90;2.70;;;;;;;12.31;76.63;96607.34;5075730;28;20032;-76
2021/07/03 03:27:08;;;;;;;3.03;2.88;;;;;;;12.31;76.60;96615.25;5075775;28;20032;-77
2021/07/03 03:29:34;;;;;;;3.10;2.90;;;;;;;12.30;76.71;96626.78;5057824;28;20497;-77
2021/07/03 03:32:00;;;;;;;2.92;2.83;;;;;;;12.30;76.73;96623.34;5075571;28;20039;-76
2021/07/03 03:34:26;;;;;;;3.30;3.10;;;;;;;12.29;76.72;96624.38;5074812;28;20044;-77
2021/07/03 03:36:52;;;;;;;3.28;3.08;;;;;;;12.26;76.86;96617.72;5073630;28;20489;-77
2021/07/03 03:39:19;;;;;;;2.88;2.78;;;;;;;12.26;76.95;96628.25;5074990;28;20391;-77
2021/07/03 03:41:45;;;;;;;2.95;2.75;;;;;;;12.26;76.81;96620.34;5074912;28;20044;-78
2021/07/03 03:44:11;;;;;;;3.05;2.75;;;;;;;12.24;76.90;96632.94;5075417;28;20484;-78
2021/07/03 03:46:37;;;;;;;3.22;3.00;;;;;;;12.23;76.76;96633.97;5075038;28;20044;-77
2021/07/03 03:49:03;;;;;;;3.38;2.88;;;;;;;12.24;76.99;96635.59;5074878;28;20516;-77
2021/07/03 03:51:29;;;;;;;2.90;2.80;;;;;;;12.23;76.88;96635.81;5074344;28;20055;-78
2021/07/03 03:53:55;;;;;;;2.65;2.45;;;;;;;12.24;77.05;96638.22;5075135;28;20500;-77
2021/07/03 03:56:22;;;;;;;2.65;2.53;;;;;;;12.22;77.17;96632.38;5075085;28;20028;-77
2021/07/03 03:58:48;;;;;;;3.13;2.92;;;;;;;12.19;77.23;96628.34;5073831;28;20041;-76
2021/07/03 04:01:14;;;;;;;2.80;2.50;;;;;;;12.17;77.17;96627.75;5075438;28;20041;-76
2021/07/03 04:03:40;;;;;;;2.58;2.47;;;;;;;12.17;77.25;96619.88;5073100;28;20048;-77
2021/07/03 04:06:06;;;;;;;2.95;2.63;;;;;;;12.19;77.55;96625.72;5074760;28;20040;-77
2021/07/03 04:08:34;;;;;;;2.70;2.60;;;;;;;12.23;77.28;96622.66;5074420;28;20047;-77
2021/07/03 04:11:00;;;;;;;3.13;2.92;;;;;;;12.24;77.43;96617.19;5074556;28;20382;-79
2021/07/03 04:13:26;;;;;;;2.60;2.50;;;;;;;12.26;77.35;96616.94;5073923;28;20049;-77
2021/07/03 04:15:53;;;;;;;3.38;3.17;;;;;;;12.27;77.38;96621.97;5074182;28;20056;-76
2021/07/03 04:18:19;;;;;;;2.97;2.78;;;;;;;12.31;77.50;96623.13;5056274;28;20044;-76
2021/07/03 04:20:45;;;;;;;2.60;2.47;;;;;;;12.37;77.29;96624.06;5074319;28;20056;-76
2021/07/03 04:23:11;;;;;;;2.90;2.70;;;;;;;12.41;77.57;96622.59;5074257;28;20037;-76
2021/07/03 04:25:37;;;;;;;2.83;2.72;;;;;;;12.47;77.40;96618.25;5074549;28;20032;-78
2021/07/03 04:28:03;;;;;;;3.25;3.05;;;;;;;12.54;77.53;96629.50;5074556;28;20439;-77
2021/07/03 04:30:29;;;;;;;3.00;2.80;;;;;;;12.60;77.48;96628.59;5074350;28;20029;-77
2021/07/03 04:32:57;;;;;;;2.53;2.42;;;;;;;12.64;77.45;96616.59;5074415;28;20063;-77
2021/07/03 04:35:23;;;;;;;3.05;2.80;;;;;;;12.71;77.54;96619.09;5074161;28;20037;-77
2021/07/03 04:37:49;;;;;;;2.92;2.80;;;;;;;12.84;77.50;96620.72;5074299;28;20064;-76
2021/07/03 04:40:15;;;;;;;3.35;3.15;;;;;;;12.94;77.50;96605.97;5074023;28;20043;-77
2021/07/03 04:42:41;;;;;;;3.25;3.05;;;;;;;13.07;77.48;96609.41;5072826;28;20063;-76
2021/07/03 04:45:08;;;;;;;3.10;2.90;;;;;;;13.22;77.32;96609.72;5072516;28;20055;-80
2021/07/03 04:47:34;;;;;;;2.60;2.50;;;;;;;13.40;76.98;96600.94;5051508;28;20396;-78
2021/07/03 04:50:01;;;;;;;3.13;2.83;;;;;;;13.56;76.87;96612.56;5072228;28;20040;-78
2021/07/03 04:52:28;;;;;;;2.90;2.80;;;;;;;13.71;76.89;96602.34;5073402;28;20041;-78
2021/07/03 04:54:54;;;;;;;2.90;2.70;;;;;;;13.93;76.71;96601.72;5073812;28;20032;-78
2021/07/03 04:57:21;;;;;;;2.95;2.85;;;;;;;14.17;76.16;96612.94;5074214;28;20037;-78
2021/07/03 04:59:47;;;;;;;2.58;2.47;;;;;;;14.39;75.96;96605.97;5073892;28;20043;-78
2021/07/03 05:02:13;;;;;;;3.15;2.85;;;;;;;14.63;75.71;96599.78;5073735;28;20032;-78
2021/07/03 05:04:45;;;;;;;2.85;2.75;;;;;;;14.85;75.28;96610.44;5072490;28;20480;-78
2021/07/03 05:07:11;;;;;;;2.80;2.65;;;;;;;15.08;74.86;96604.16;5073791;28;20047;-77
2021/07/03 05:09:37;;;;;;;3.13;2.92;;;;;;;15.30;74.37;96602.34;5073291;28;20036;-78
2021/07/03 05:12:04;;;;;;;2.72;2.63;;;;;;;15.39;73.41;96605.34;5073831;28;20099;-78
2021/07/03 05:14:30;;;;;;;2.80;2.70;;;;;;;15.34;72.83;96600.81;5074064;28;20037;-76
2021/07/03 05:16:56;;;;;;;2.47;2.38;;;;;;;15.36;72.60;96598.72;5073060;28;20063;-78
2021/07/03 05:19:22;;;;;;;2.92;2.72;;;;;;;15.49;72.51;96597.56;5073275;28;20051;-77
2021/07/03 05:21:48;;;;;;;3.13;2.92;;;;;;;15.70;72.49;96597.81;5073457;28;20028;-77
2021/07/03 05:24:14;;;;;;;2.70;2.50;;;;;;;15.81;71.72;96605.66;5072364;28;20035;-77
2021/07/03 05:26:41;;;;;;;2.75;2.55;;;;;;;15.89;71.37;96598.34;5073443;28;20041;-77
2021/07/03 05:29:07;;;;;;;2.85;2.60;;;;;;;16.02;70.97;96597.94;5072877;28;20063;-77
2021/07/03 05:31:33;;;;;;;2.90;2.70;;;;;;;16.07;70.76;96598.00;5073399;28;20032;-76
2021/07/03 05:34:00;;;;;;;2.97;2.80;;;;;;;16.09;70.15;96592.47;5072945;28;20099;-77
2021/07/03 05:36:26;;;;;;;2.58;2.47;;;;;;;16.13;69.88;96591.72;5073409;28;20373;-77
2021/07/03 05:38:53;;;;;;;3.20;3.00;;;;;;;16.08;69.67;96598.81;5073343;28;20389;-78
2021/07/03 05:41:20;;;;;;;2.55;2.40;;;;;;;16.24;69.91;96596.06;5071709;28;20040;-77
2021/07/03 05:43:46;;;;;;;2.38;2.28;;;;;;;16.52;69.76;96593.38;5073202;28;20499;-76
2021/07/03 05:46:13;;;;;;;2.50;2.40;;;;;;;16.86;69.50;96590.50;5054897;28;20064;-75
2021/07/03 05:48:41;;;;;;;2.40;2.30;;;;;;;17.12;68.83;96594.13;5072226;28;20045;-76
2021/07/03 05:51:07;;;;;;;2.60;2.50;;;;;;;17.09;67.56;96586.69;5072569;28;20044;-75
2021/07/03 05:53:33;;;;;;;2.65;2.45;;;;;;;17.11;67.60;96593.31;5072706;28;20020;-78
2021/07/03 05:56:00;;;;;;;2.30;2.20;;;;;;;17.27;67.33;96586.25;5072663;28;20040;-76
2021/07/03 05:58:26;;;;;;;2.53;2.40;;;;;;;17.55;67.05;96592.22;5072990;28;20035;-75
2021/07/03 06:00:52;;;;;;;2.42;2.22;;;;;;;17.83;66.82;96586.53;5073461;28;20103;-75
2021/07/03 06:03:18;;;;;;;2.58;2.38;;;;;;;18.12;66.27;96585.28;5076632;28;20028;-75
2021/07/03 06:05:45;;;;;;;2.30;2.20;;;;;;;18.34;65.29;96580.53;5076814;28;20037;-74
2021/07/03 06:08:11;;;;;;;2.17;2.08;;;;;;;18.56;64.90;96571.50;5076861;28;20033;-74
2021/07/03 06:10:37;;;;;;;2.22;2.13;;;;;;;18.48;63.76;96566.72;5076689;28;20047;-74
2021/07/03 06:13:03;;;;;;;2.53;2.40;;;;;;;18.50;63.73;96561.94;5076451;28;20045;-75
2021/07/03 06:15:29;;;;;;;2.45;2.35;;;;;;;18.54;63.42;96561.19;5077228;28;20033;-73
2021/07/03 06:17:55;;;;;;;2.53;2.33;;;;;;;18.46;62.55;96556.41;5076597;28;20064;-74
2021/07/03 06:20:22;;;;;;;2.40;2.30;;;;;;;18.34;62.96;96561.94;5076375;28;20048;-74
2021/07/03 06:22:49;;;;;;;2.55;2.35;;;;;;;18.41;62.55;96559.81;5076336;28;20051;-74
2021/07/03 06:25:15;;;;;;;2.60;2.40;;;;;;;18.62;62.41;96555.31;5077131;28;20036;-74
2021/07/03 06:27:41;;;;;;;2.30;2.20;;;;;;;18.83;62.14;96558.78;5076705;28;20036;-74
2021/07/03 06:30:09;;;;;;;2.33;2.22;;;;;;;19.11;61.72;96556.63;5076345;28;20044;-74
2021/07/03 06:32:36;;;;;;;2.22;2.10;;;;;;;19.15;60.72;96552.38;5075899;28;20484;-74
2021/07/03 06:35:03;;;;;;;2.20;2.10;;;;;;;19.15;60.59;96552.38;5076317;28;20385;-74
2021/07/03 06:37:29;;;;;;;2.38;2.28;;;;;;;19.26;60.42;96559.22;5076791;28;20040;-73
2021/07/03 06:39:55;;;;;;;2.50;2.05;;;;;;;19.36;60.15;96555.75;5076913;28;20056;-74
2021/07/03 06:42:22;;;;;;;2.40;2.28;;;;;;;19.42;60.27;96557.34;5076070;28;20059;-73
2021/07/03 06:44:49;;;;;;;2.08;1.98;;;;;;;19.43;60.13;96550.13;5076499;28;20051;-74
2021/07/03 06:47:15;;;;;;;2.72;2.08;;;;;;;19.37;59.90;96554.66;5076081;28;20044;-75
2021/07/03 06:49:42;;;;;;;2.50;2.30;;;;;;;19.24;60.35;96561.38;5076482;28;20032;-73
2021/07/03 06:52:11;;;;;;;2.30;2.20;;;;;;;19.04;60.45;96561.41;5075923;28;20048;-74
2021/07/03 06:54:41;;;;;;;2.53;2.42;;;;;;;18.98;60.50;96570.44;5076347;28;20048;-74
2021/07/03 06:57:09;;;;;;;2.50;2.30;;;;;;;18.98;60.67;96576.59;5075999;28;20036;-75
2021/07/03 06:59:36;;;;;;;2.30;2.20;;;;;;;18.86;60.75;96563.56;5076186;28;20024;-73
2021/07/03 07:02:02;;;;;;;2.50;2.40;;;;;;;18.85;60.94;96567.28;5076308;28;20389;-73
2021/07/03 07:04:28;;;;;;;2.40;2.20;;;;;;;19.02;61.28;96567.00;5076384;28;20036;-74
2021/07/03 07:06:56;;;;;;;2.38;2.28;;;;;;;19.12;60.71;96560.84;5075305;28;20036;-73
2021/07/03 07:09:26;;;;;;;2.40;2.30;;;;;;;19.34;60.57;96560.56;5075751;28;20055;-73
2021/07/03 07:11:53;;;;;;;2.10;2.00;;;;;;;19.44;60.58;96554.38;5074068;28;20480;-75
2021/07/03 07:14:19;;;;;;;2.33;2.22;;;;;;;19.56;60.34;96554.88;5074889;28;20029;-74
2021/07/03 07:16:45;;;;;;;2.20;2.10;;;;;;;19.61;60.04;96559.38;5075444;28;20477;-74
2021/07/03 07:19:11;;;;;;;2.42;2.20;;;;;;;19.76;60.31;96553.19;5081632;28;20036;-74
2021/07/03 07:21:37;;;;;;;2.33;2.22;;;;;;;19.88;59.84;96545.69;5083396;28;20055;-74
2021/07/03 07:24:05;;;;;;;2.60;2.40;;;;;;;20.01;59.73;96542.44;5074255;28;20032;-74
2021/07/03 07:26:32;;;;;;;2.30;2.20;;;;;;;20.20;59.49;96534.59;5075729;28;20040;-74
2021/07/03 07:28:58;;;;;;;2.13;2.05;;;;;;;20.36;59.27;96534.47;5075453;28;20052;-74
2021/07/03 07:31:24;;;;;;;2.03;1.92;;;;;;;20.57;58.99;96530.56;5075417;28;20037;-74
2021/07/03 07:33:50;;;;;;;2.30;2.20;;;;;;;20.69;58.34;96514.25;5075670;28;20033;-73
2021/07/03 07:36:17;;;;;;;1.98;1.88;;;;;;;20.74;57.77;96514.19;5074848;28;20041;-75
2021/07/03 07:38:43;;;;;;;2.05;1.95;;;;;;;20.88;57.15;96509.78;5078689;28;20036;-74
2021/07/03 07:41:09;;;;;;;2.00;1.90;;;;;;;21.04;56.71;96504.28;5075297;28;20028;-73
2021/07/03 07:43:36;;;;;;;1.88;1.77;;;;;;;21.18;55.85;96491.06;5075337;28;20043;-75
2021/07/03 07:46:03;;;;;;;1.90;1.80;;;;;;;21.25;55.05;96483.50;5074432;28;20048;-73
2021/07/03 07:48:32;;;;;;;1.90;1.80;;;;;;;21.36;54.30;96476.19;5074876;28;20035;-74
2021/07/03 07:51:00;;;;;;;1.70;1.70;;;;;;;21.59;54.05;96469.25;5075034;28;20040;-74
2021/07/03 07:53:28;;;;;;;1.80;1.70;;;;;;;21.90;53.32;96456.25;5074733;28;20044;-74
2021/07/03 07:55:55;;;;;;;1.83;1.73;;;;;;;21.99;52.20;96441.16;5075049;28;20039;-73
2021/07/03 07:58:21;;;;;;;1.60;1.50;;;;;;;22.03;51.73;96452.84;5074776;28;20032;-73
2021/07/03 08:00:47;;;;;;;1.90;1.80;;;;;;;22.02;51.07;96448.56;5075186;28;20055;-73
2021/07/03 08:03:13;;;;;;;1.77;1.67;;;;;;;22.24;51.25;96449.88;5075126;28;20480;-73
2021/07/03 08:05:39;;;;;;;2.10;1.90;;;;;;;22.24;50.36;96450.66;5073859;28;20052;-75
2021/07/03 08:08:06;;;;;;;2.00;1.90;;;;;;;22.33;50.29;96456.13;5074766;28;20503;-73
2021/07/03 08:10:34;;;;;;;1.50;1.50;;;;;;;22.45;49.84;96450.34;5074746;28;20405;-74
2021/07/03 08:13:00;;;;;;;1.70;1.60;;;;;;;22.44;49.58;96446.84;5074271;28;20040;-74
2021/07/03 08:15:27;;;;;;;1.35;1.35;;;;;;;22.69;49.53;96448.28;5074808;28;20044;-74
2021/07/03 08:17:53;;;;;;;1.52;1.42;;;;;;;22.89;48.91;96440.97;5074878;28;20032;-74
2021/07/03 08:20:21;;;;;;;1.67;1.58;;;;;;;22.85;47.85;96480.09;5074533;28;20063;-73
2021/07/03 08:22:50;;;;;;;1.73;1.60;;;;;;;22.87;47.78;96481.38;5074470;28;20497;-74
2021/07/03 08:25:17;;;;;;;1.40;1.40;;;;;;;22.96;47.89;96475.34;5073452;28;20024;-74
2021/07/03 08:27:45;;;;;;;1.75;1.65;;;;;;;23.19;47.47;96477.03;5074360;28;20044;-74
2021/07/03 08:30:12;;;;;;;1.60;1.50;;;;;;;23.32;46.81;96475.44;5074202;28;20035;-74
2021/07/03 08:32:39;;;;;;;1.42;1.42;;;;;;;23.33;46.13;96479.72;5073713;28;20056;-74
2021/07/03 08:35:06;;;;;;;1.40;1.40;;;;;;;23.33;45.92;96474.38;5074613;28;20051;-74
2021/07/03 08:37:32;;;;;;;1.60;1.50;;;;;;;23.39;45.92;96477.72;5074511;28;20032;-74
2021/07/03 08:39:58;;;;;;;1.30;1.30;;;;;;;23.53;45.97;96470.47;5073748;28;20037;-73
2021/07/03 08:42:24;;;;;;;1.30;1.30;;;;;;;23.55;45.05;96483.56;5074503;28;20045;-74
2021/07/03 08:44:51;;;;;;;1.30;1.30;;;;;;;23.56;45.18;96487.81;5073972;28;20045;-75
2021/07/03 08:47:18;;;;;;;2.00;1.25;;;;;;;23.73;45.41;96474.59;5074125;28;20477;-73
2021/07/03 08:49:58;;;;;;;1.70;1.60;;;;;;;23.84;43.57;96464.47;5074370;28;20067;-74
2021/07/03 08:52:27;;;;;;;1.60;1.50;;;;;;;23.74;44.72;96472.69;5074002;28;20039;-74
2021/07/03 08:55:16;;;;;;;1.70;1.60;;;;;;;23.77;48.10;96494.34;5073394;28;20040;-74
2021/07/03 08:57:51;;;;;;;1.20;1.20;;;;;;;23.99;44.62;96476.72;5073089;28;20049;-74
2021/07/03 09:00:21;;;;;;;1.10;1.10;;;;;;;24.04;44.72;96495.34;5074037;28;20043;-73
2021/07/03 09:02:48;;;;;;;1.20;1.20;;;;;;;24.17;44.59;96497.19;5073870;28;20036;-74
2021/07/03 09:05:32;;;;;;;1.20;1.20;;;;;;;24.22;42.64;96496.28;5074176;28;20040;-74
2021/07/03 09:08:00;;;;;;;2.47;1.55;;;;;;;24.18;43.57;96493.41;5073264;28;20476;-75
2021/07/03 09:10:28;;;;;;;1.70;1.60;;;;;;;24.19;43.37;96476.25;5073179;28;20048;-74
2021/07/03 09:12:58;;;;;;;1.40;1.30;;;;;;;24.11;42.98;96474.28;5073322;28;20465;-74
2021/07/03 09:15:26;;;;;;;1.10;1.10;;;;;;;24.04;43.08;96484.63;5073213;28;20487;-74
2021/07/03 09:17:54;;;;;;;1.40;1.40;;;;;;;24.05;43.17;96480.88;5074120;28;20044;-74
2021/07/03 09:20:27;;;;;;;1.25;1.25;;;;;;;24.18;43.31;96481.91;5073536;28;20412;-74
2021/07/03 09:23:04;;;;;;;1.05;1.05;;;;;;;24.38;42.31;96468.00;5073661;28;20040;-74
2021/07/03 09:25:31;;;;;;;1.80;1.20;;;;;;;24.57;42.82;96472.38;5073640;28;20033;-74
2021/07/03 09:28:04;;;;;;;1.10;1.10;;;;;;;24.49;41.68;96466.69;5073176;28;20055;-74
2021/07/03 09:30:31;;;;;;;1.07;1.07;;;;;;;24.66;42.17;96465.97;5073679;28;20380;-74
2021/07/03 09:32:57;;;;;;;1.33;1.23;;;;;;;24.80;42.18;96467.75;5055568;28;20275;-73
2021/07/03 09:35:23;;;;;;;1.10;1.10;;;;;;;24.93;41.83;96474.94;5073562;28;20457;-74
2021/07/03 09:37:49;;;;;;;1.00;1.00;;;;;;;24.87;41.61;96478.84;5073132;28;20036;-74
2021/07/03 09:40:17;;;;;;;0.90;0.90;;;;;;;24.85;40.98;96473.78;5073058;28;20051;-74
2021/07/03 09:42:44;;;;;;;1.13;1.13;;;;;;;24.99;40.88;96476.38;5073340;28;20040;-74
2021/07/03 09:45:11;;;;;;;1.05;0.90;;;;;;;25.05;39.86;96468.97;5073095;28;20063;-74
2021/07/03 09:48:02;;;;;;;1.00;1.00;;;;;;;25.00;39.30;96471.78;5063465;28;20072;-74
2021/07/03 09:50:29;;;;;;;1.00;1.00;;;;;;;25.01;39.21;96471.50;5073191;28;20049;-74
2021/07/03 09:53:00;;;;;;;1.77;0.90;;;;;;;25.15;39.06;96462.53;5073326;28;20041;-74
2021/07/03 09:55:27;;;;;;;1.60;1.40;;;;;;;25.37;39.39;96451.72;5073318;28;20381;-74
2021/07/03 09:57:53;;;;;;;1.02;1.02;;;;;;;25.49;38.77;96454.59;5072636;28;20480;-74
2021/07/03 10:00:19;;;;;;;1.10;1.02;;;;;;;25.28;38.66;96457.09;5073419;28;20044;-74
2021/07/03 10:02:46;;;;;;;1.20;1.20;;;;;;;25.34;38.75;96452.34;5073151;28;20068;-74
2021/07/03 10:05:12;;;;;;;0.90;0.90;;;;;;;25.25;38.20;96455.00;5072432;28;20048;-74
2021/07/03 10:07:43;;;;;;;1.20;1.10;;;;;;;25.04;36.71;96445.94;5072485;28;20063;-74
2021/07/03 10:10:18;;;;;;;1.00;1.00;;;;;;;24.84;37.75;96447.25;5073481;28;20101;-74
2021/07/03 10:12:50;;;;;;;1.00;1.00;;;;;;;24.99;37.24;96443.38;5073342;28;20376;-74
2021/07/03 10:15:33;;;;;;;1.02;1.02;;;;;;;25.25;37.48;96438.91;5063155;28;20048;-74
2021/07/03 10:18:14;;;;;;;1.23;1.10;;;;;;;25.57;37.52;96433.41;5064494;28;20061;-74
2021/07/03 10:20:44;;;;;;;0.75;0.75;;;;;;;25.81;37.04;96431.06;5072951;28;20036;-74
2021/07/03 10:23:10;;;;;;;1.00;1.00;;;;;;;25.79;36.90;96435.97;5072514;28;20431;-74
2021/07/03 10:25:39;;;;;;;0.98;0.98;;;;;;;25.84;36.73;96435.00;5072231;28;20041;-74
2021/07/03 10:28:11;;;;;;;1.02;0.90;;;;;;;26.06;36.67;96432.19;5072830;28;20024;-75
2021/07/03 10:30:40;;;;;;;0.82;0.82;;;;;;;26.12;36.59;96430.09;5073060;28;20037;-74
2021/07/03 10:33:12;;;;;;;0.98;0.90;;;;;;;26.08;35.69;96426.47;5072164;28;20056;-74
2021/07/03 10:35:45;;;;;;;1.00;1.00;;;;;;;26.27;35.69;96426.13;5073017;28;20059;-74
2021/07/03 10:38:23;;;;;;;1.02;1.02;;;;;;;26.11;34.59;96418.56;5072630;28;20396;-74
2021/07/03 10:41:11;;;;;;;1.02;1.02;;;;;;;25.96;34.97;96416.38;5072620;28;20040;-74
2021/07/03 10:43:45;;;;;;;0.73;0.73;;;;;;;25.96;34.37;96416.38;5072787;28;20496;-74
2021/07/03 10:46:12;;;;;;;;;;;;;;;25.94;33.61;96401.69;5072435;28;20052;-74
2021/07/03 10:48:38;;;;;;;0.80;0.80;;;;;;;26.00;34.99;96427.28;5073297;28;19928;-74
2021/07/03 10:51:10;;;;;;;0.82;0.82;;;;;;;26.23;34.97;96417.94;5075828;28;20104;-74
2021/07/03 10:53:37;;;;;;;0.93;0.93;;;;;;;26.53;34.77;96418.00;5075434;28;20052;-74
2021/07/03 10:56:13;;;;;;;1.10;1.00;;;;;;;26.73;33.35;96409.25;5076566;28;20381;-74
2021/07/03 10:58:42;;;;;;;2.42;0.90;;;;;;;26.77;34.12;96409.38;5076097;28;20028;-74
2021/07/03 11:01:09;;;;;;;0.80;0.80;;;;;;;26.63;33.80;96408.81;5076016;28;20040;-74
2021/07/03 11:03:44;;;;;;;1.98;1.88;;;;;;;26.53;34.34;96412.63;5076057;28;20052;-74
2021/07/03 11:06:18;;;;;;;1.00;1.00;;;;;;;26.71;35.33;96402.59;5075918;28;20040;-74
2021/07/03 11:08:45;;;;;;;0.90;0.90;;;;;;;26.75;34.33;96405.44;5075197;28;20041;-74
2021/07/03 11:11:13;;;;;;;1.50;1.00;;;;;;;26.79;34.32;96407.16;5075329;28;20044;-74
2021/07/03 11:13:41;;;;;;;0.80;0.80;;;;;;;26.92;34.08;96390.00;5075984;28;20516;-73
2021/07/03 11:16:09;;;;;;;1.02;0.90;;;;;;;27.07;33.73;96390.56;5075924;28;20031;-74
2021/07/03 11:18:44;;;;;;;1.55;1.20;;;;;;;27.03;32.84;96382.34;5075516;28;20083;-74
2021/07/03 11:21:13;;;;;;;2.50;2.40;;;;;;;27.19;33.91;96393.31;5075805;28;20032;-74
2021/07/03 11:23:40;;;;;;;1.50;0.95;;;;;;;27.32;33.66;96386.16;5075497;28;20043;-74
2021/07/03 11:26:10;;;;;;;1.00;1.00;;;;;;;27.26;32.96;96384.78;5075646;28;20033;-74
2021/07/03 11:28:37;;;;;;;0.93;0.93;;;;;;;27.30;33.31;96381.09;5075135;28;20396;-74
2021/07/03 11:31:04;;;;;;;5.93;5.43;;;;;;;27.45;32.83;96377.03;5075483;28;20036;-74
2021/07/03 11:33:35;;;;;;;1.10;1.10;;;;;;;27.69;31.61;96370.16;5075657;28;20080;-74
2021/07/03 11:36:05;;;;;;;0.60;0.60;;;;;;;27.55;29.39;96378.53;5075855;28;20045;-74